Time;durP1;ratioP1;P1;durP2;ratioP2;P2;SDS_P1;SDS_P2;PMS_P1;PMS_P2;Temp;Humidity;BMP_temperature;BMP_pressure;BME280_temperature;BME280_humidity;BME280_pressure;Samples;Min_cycle;Max_cycle;Signal;HPM_P1;HPM_P2
2020/12/18 00:01:59;;;;;;;2.88;2.00;;;21.00;51.40;;;;;;5029304;28;20033;-45
2020/12/18 00:04:25;;;;;;;3.63;2.30;;;21.00;51.40;;;;;;5030467;28;20112;-40
2020/12/18 00:06:51;;;;;;;2.28;1.85;;;21.00;51.30;;;;;;5044879;28;20392;-55
2020/12/18 00:09:16;;;;;;;5.20;2.40;;;21.00;51.30;;;;;;5030561;28;20096;-45
2020/12/18 00:11:42;;;;;;;4.40;2.30;;;21.00;51.20;;;;;;5030768;28;20025;-58
2020/12/18 00:14:08;;;;;;;3.00;1.85;;;21.00;51.10;;;;;;5031067;28;20034;-36
2020/12/18 00:16:34;;;;;;;4.68;2.47;;;21.00;51.10;;;;;;5031032;28;20033;-41
2020/12/18 00:19:00;;;;;;;2.97;2.08;;;21.00;51.10;;;;;;5030492;28;20083;-48
2020/12/18 00:21:25;;;;;;;3.05;1.90;;;21.00;51.10;;;;;;5030872;28;20417;-48
2020/12/18 00:23:51;;;;;;;3.40;2.20;;;21.00;51.10;;;;;;5030282;28;20034;-47
2020/12/18 00:26:18;;;;;;;2.75;1.83;;;21.00;51.00;;;;;;5031403;28;20083;-44
2020/12/18 00:28:45;;;;;;;4.30;2.17;;;21.00;51.00;;;;;;5030779;28;20032;-60
2020/12/18 00:31:11;;;;;;;3.65;1.75;;;21.00;50.90;;;;;;5034186;28;20087;-43
2020/12/18 00:33:37;;;;;;;4.05;2.40;;;21.00;50.90;;;;;;5035171;28;20045;-53
2020/12/18 00:36:04;;;;;;;3.05;2.00;;;21.00;50.80;;;;;;5032282;28;20459;-48
2020/12/18 00:38:30;;;;;;;2.25;1.65;;;21.00;50.80;;;;;;5034632;28;20071;-53
2020/12/18 00:40:56;;;;;;;3.30;1.90;;;20.90;50.70;;;;;;5034505;28;20033;-50
2020/12/18 00:43:21;;;;;;;4.63;2.00;;;21.00;50.80;;;;;;5035060;28;20425;-46
2020/12/18 00:45:47;;;;;;;3.33;2.30;;;21.00;50.80;;;;;;5034097;28;20083;-51
2020/12/18 00:48:13;;;;;;;3.15;2.30;;;20.90;50.70;;;;;;5035154;28;20083;-49
2020/12/18 00:50:38;;;;;;;3.00;1.80;;;21.00;50.70;;;;;;5034204;28;21609;-40
2020/12/18 00:53:04;;;;;;;2.78;1.85;;;20.90;50.60;;;;;;5033121;28;20030;-42
2020/12/18 00:55:33;;;;;;;2.45;1.75;;;20.90;50.60;;;;;;5033698;28;20041;-37
2020/12/18 00:57:58;;;;;;;4.90;2.22;;;20.90;50.50;;;;;;5031548;28;20072;-42
2020/12/18 01:00:24;;;;;;;5.20;2.30;;;20.90;50.50;;;;;;5034660;28;20422;-43
2020/12/18 01:02:50;;;;;;;2.75;2.28;;;20.90;50.40;;;;;;5033723;28;20528;-42
2020/12/18 01:05:15;;;;;;;2.17;1.73;;;20.90;50.40;;;;;;5033824;28;20034;-40
2020/12/18 01:07:41;;;;;;;4.97;2.47;;;20.90;50.40;;;;;;5032328;28;20033;-60
2020/12/18 01:10:07;;;;;;;3.83;1.90;;;20.90;50.40;;;;;;5032187;28;20475;-51
2020/12/18 01:12:32;;;;;;;2.95;1.90;;;20.90;50.30;;;;;;5034336;28;20029;-41
2020/12/18 01:14:58;;;;;;;3.03;2.15;;;20.90;51.00;;;;;;5032369;28;20030;-36
2020/12/18 01:17:24;;;;;;;3.10;2.10;;;20.90;50.30;;;;;;5034592;28;20038;-49
2020/12/18 01:19:49;;;;;;;2.90;1.80;;;20.90;50.20;;;;;;5032449;28;20066;-41
2020/12/18 01:22:15;;;;;;;4.00;1.95;;;20.90;50.20;;;;;;5033813;28;20033;-45
2020/12/18 01:24:41;;;;;;;3.92;1.90;;;20.90;50.20;;;;;;5033630;28;20025;-41
2020/12/18 01:27:07;;;;;;;2.92;2.17;;;20.90;50.10;;;;;;5048020;28;20032;-43
2020/12/18 01:29:32;;;;;;;4.85;1.92;;;20.90;50.10;;;;;;5033441;28;20029;-45
2020/12/18 01:31:58;;;;;;;3.83;2.05;;;20.90;50.10;;;;;;5032073;28;20393;-39
2020/12/18 01:34:23;;;;;;;3.35;2.08;;;20.90;50.10;;;;;;5031802;28;20041;-44
2020/12/18 01:36:49;;;;;;;3.85;1.90;;;20.80;50.10;;;;;;5032286;28;20171;-43
2020/12/18 01:39:15;;;;;;;6.75;3.03;;;20.80;50.00;;;;;;5032909;28;20032;-57
2020/12/18 01:41:40;;;;;;;3.35;2.25;;;20.80;50.00;;;;;;5032587;28;20055;-42
2020/12/18 01:44:06;;;;;;;2.88;1.88;;;20.80;50.00;;;;;;5031789;28;20390;-44
2020/12/18 01:46:33;;;;;;;3.15;1.92;;;20.80;50.00;;;;;;5033282;28;20033;-44
2020/12/18 01:48:59;;;;;;;3.25;1.55;;;20.80;49.90;;;;;;5031784;28;20065;-44
2020/12/18 01:51:26;;;;;;;2.78;2.15;;;20.80;50.00;;;;;;5033361;28;20034;-36
2020/12/18 01:53:52;;;;;;;4.18;2.28;;;20.80;49.90;;;;;;5032124;28;20120;-44
2020/12/18 01:56:19;;;;;;;2.28;1.92;;;20.80;49.90;;;;;;5033377;28;20029;-51
2020/12/18 01:58:47;;;;;;;6.20;2.10;;;20.80;49.80;;;;;;5032997;28;20033;-59
2020/12/18 02:01:13;;;;;;;2.45;1.95;;;20.80;49.90;;;;;;5033524;28;20029;-44
2020/12/18 02:03:39;;;;;;;3.53;2.00;;;20.80;49.80;;;;;;5033730;28;20374;-54
2020/12/18 02:06:08;;;;;;;2.40;1.85;;;20.80;49.80;;;;;;5032562;28;20033;-47
2020/12/18 02:08:34;;;;;;;3.08;1.90;;;20.80;49.80;;;;;;5033159;28;20072;-47
2020/12/18 02:11:00;;;;;;;3.20;2.22;;;20.80;50.50;;;;;;5032702;28;20053;-39
2020/12/18 02:13:27;;;;;;;3.05;2.03;;;20.80;49.80;;;;;;5033338;28;20115;-56
2020/12/18 02:15:53;;;;;;;2.88;1.77;;;20.80;49.80;;;;;;5032247;28;20501;-45
2020/12/18 02:18:20;;;;;;;3.05;1.63;;;20.80;49.80;;;;;;5025709;28;20026;-44
2020/12/18 02:20:46;;;;;;;3.45;2.00;;;20.80;49.80;;;;;;5032623;28;20018;-62
2020/12/18 02:23:13;;;;;;;3.85;2.45;;;20.80;49.80;;;;;;5032912;28;20384;-54
2020/12/18 02:25:40;;;;;;;3.15;1.90;;;20.80;49.80;;;;;;5033352;28;20030;-47
2020/12/18 02:28:11;;;;;;;2.20;1.80;;;20.80;49.60;;;;;;5032039;28;20030;-44
2020/12/18 02:30:37;;;;;;;2.83;1.70;;;20.80;49.60;;;;;;5033156;28;20021;-42
2020/12/18 02:33:07;;;;;;;2.10;1.90;;;20.80;49.60;;;;;;5031748;28;20107;-46
2020/12/18 02:35:33;;;;;;;2.03;1.83;;;20.80;49.60;;;;;;5032196;28;20057;-51
2020/12/18 02:37:59;;;;;;;3.28;2.00;;;20.80;49.60;;;;;;5032176;28;20053;-48
2020/12/18 02:40:25;;;;;;;2.63;2.00;;;20.80;49.60;;;;;;5032593;28;20029;-44
2020/12/18 02:42:51;;;;;;;2.70;2.00;;;20.80;49.60;;;;;;5031813;28;20041;-47
2020/12/18 02:45:17;;;;;;;2.83;1.95;;;20.80;49.50;;;;;;5032201;28;20034;-54
2020/12/18 02:47:43;;;;;;;3.08;2.10;;;20.70;49.40;;;;;;5032873;28;20041;-44
2020/12/18 02:50:09;;;;;;;3.75;2.30;;;20.70;49.40;;;;;;5031737;28;20032;-37
2020/12/18 02:52:35;;;;;;;4.75;2.95;;;20.80;49.40;;;;;;5031431;28;20018;-46
2020/12/18 02:55:01;;;;;;;2.78;1.90;;;20.70;49.30;;;;;;5031260;28;20045;-50
2020/12/18 02:57:27;;;;;;;3.85;1.80;;;20.70;49.30;;;;;;5032433;28;20033;-39
2020/12/18 02:59:52;;;;;;;2.53;1.77;;;20.80;49.50;;;;;;5031380;28;20033;-39
2020/12/18 03:02:18;;;;;;;2.85;1.95;;;20.70;49.40;;;;;;5032198;28;20471;-41
2020/12/18 03:04:43;;;;;;;8.85;2.10;;;20.80;49.40;;;;;;5032295;28;20033;-40
2020/12/18 03:07:09;;;;;;;3.08;2.10;;;20.70;49.30;;;;;;5031747;28;20022;-50
2020/12/18 03:09:35;;;;;;;2.08;1.67;;;20.70;49.20;;;;;;5031721;28;20033;-40
2020/12/18 03:12:01;;;;;;;3.38;2.00;;;20.70;49.20;;;;;;5031653;28;20033;-46
2020/12/18 03:14:26;;;;;;;4.90;2.05;;;20.70;49.20;;;;;;5031862;28;20027;-40
2020/12/18 03:16:52;;;;;;;4.22;2.28;;;20.70;49.20;;;;;;5031512;28;20046;-44
2020/12/18 03:19:17;;;;;;;3.30;2.45;;;20.70;49.10;;;;;;5031944;28;20040;-42
2020/12/18 03:21:43;;;;;;;2.70;2.05;;;20.70;49.00;;;;;;5032250;28;20029;-40
2020/12/18 03:24:09;;;;;;;2.42;1.92;;;20.70;49.10;;;;;;5030337;28;20099;-45
2020/12/18 03:26:34;;;;;;;5.25;2.45;;;20.70;49.20;;;;;;5032057;28;20061;-44
2020/12/18 03:29:00;;;;;;;3.33;1.90;;;20.70;49.00;;;;;;5030042;28;20037;-50
2020/12/18 03:31:25;;;;;;;4.07;2.10;;;20.70;49.00;;;;;;5031476;28;20475;-44
2020/12/18 03:33:51;;;;;;;2.92;2.10;;;20.70;49.00;;;;;;5030463;28;20080;-44
2020/12/18 03:36:17;;;;;;;3.85;2.08;;;20.70;48.90;;;;;;5031917;28;20044;-49
2020/12/18 03:38:42;;;;;;;3.60;2.25;;;20.70;49.00;;;;;;5030516;28;20032;-41
2020/12/18 03:41:08;;;;;;;2.83;1.58;;;20.70;48.90;;;;;;5030029;28;20068;-41
2020/12/18 03:43:34;;;;;;;2.50;2.00;;;20.80;48.90;;;;;;5031501;28;20087;-44
2020/12/18 03:46:00;;;;;;;2.50;2.00;;;20.70;48.90;;;;;;5031092;28;20120;-40
2020/12/18 03:48:26;;;;;;;3.33;1.98;;;20.70;48.80;;;;;;5031566;28;20037;-40
2020/12/18 03:50:52;;;;;;;3.65;1.98;;;20.70;48.80;;;;;;5030727;28;20040;-44
2020/12/18 03:53:18;;;;;;;2.55;1.88;;;20.70;48.80;;;;;;5031560;28;20025;-47
2020/12/18 03:55:44;;;;;;;4.38;2.20;;;20.70;48.80;;;;;;5031141;28;20125;-41
2020/12/18 03:58:10;;;;;;;4.00;2.17;;;20.70;48.80;;;;;;5030702;28;20286;-41
2020/12/18 04:00:39;;;;;;;6.80;3.03;;;20.70;48.80;;;;;;5031436;28;20044;-43
2020/12/18 04:03:05;;;;;;;3.83;2.30;;;20.70;48.70;;;;;;5030768;28;20038;-43
2020/12/18 04:05:31;;;;;;;2.88;2.03;;;20.70;48.80;;;;;;5029812;28;20145;-45
2020/12/18 04:07:57;;;;;;;3.03;1.98;;;20.70;48.70;;;;;;5027402;28;20400;-43
2020/12/18 04:10:22;;;;;;;3.72;1.80;;;20.70;48.70;;;;;;5031017;28;20108;-42
2020/12/18 04:12:48;;;;;;;3.80;2.13;;;20.70;48.70;;;;;;5031254;28;20025;-60
2020/12/18 04:15:13;;;;;;;3.63;2.20;;;20.70;48.70;;;;;;5030798;28;20463;-48
2020/12/18 04:17:39;;;;;;;2.40;2.00;;;20.70;48.70;;;;;;5031485;28;20037;-43
2020/12/18 04:20:05;;;;;;;1.95;1.70;;;20.70;48.70;;;;;;5029997;28;20026;-42
2020/12/18 04:22:31;;;;;;;3.38;2.00;;;20.70;48.70;;;;;;5031200;28;20467;-56
2020/12/18 04:24:56;;;;;;;3.15;2.00;;;20.70;48.70;;;;;;5030419;28;20108;-42
2020/12/18 04:27:22;;;;;;;4.55;2.15;;;20.70;48.60;;;;;;5031245;28;20036;-44
2020/12/18 04:29:48;;;;;;;2.95;2.00;;;20.70;48.60;;;;;;5030924;28;20033;-60
2020/12/18 04:32:14;;;;;;;2.50;1.98;;;20.70;48.60;;;;;;5030325;28;20073;-40
2020/12/18 04:34:39;;;;;;;4.88;3.40;;;20.70;48.60;;;;;;5030739;28;20057;-36
2020/12/18 04:37:05;;;;;;;3.60;2.33;;;20.70;48.50;;;;;;5030540;28;20072;-44
2020/12/18 04:39:31;;;;;;;2.67;1.90;;;20.70;48.50;;;;;;5030866;28;20518;-37
2020/12/18 04:41:56;;;;;;;2.28;2.00;;;20.70;48.50;;;;;;5029814;28;20117;-38
2020/12/18 04:44:24;;;;;;;2.55;2.00;;;20.70;48.50;;;;;;5031586;28;20049;-48
2020/12/18 04:46:50;;;;;;;2.85;2.33;;;20.70;48.50;;;;;;5030412;28;20516;-62
2020/12/18 04:49:18;;;;;;;3.22;2.47;;;20.80;48.50;;;;;;5030593;28;20037;-36
2020/12/18 04:51:44;;;;;;;4.05;1.88;;;20.80;48.50;;;;;;5030430;28;20359;-45
2020/12/18 04:54:11;;;;;;;3.50;1.90;;;20.70;48.40;;;;;;5030485;28;20051;-45
2020/12/18 04:56:40;;;;;;;2.60;2.10;;;20.70;48.40;;;;;;5029589;28;20104;-39
2020/12/18 04:59:06;;;;;;;3.03;2.10;;;20.70;48.40;;;;;;5030064;28;20025;-44
2020/12/18 05:01:32;;;;;;;3.40;1.80;;;20.80;48.40;;;;;;5030708;28;20386;-47
2020/12/18 05:04:00;;;;;;;3.95;1.80;;;20.80;48.50;;;;;;5030166;28;20037;-39
2020/12/18 05:06:26;;;;;;;3.92;2.08;;;20.80;48.40;;;;;;5023279;28;20030;-44
2020/12/18 05:08:52;;;;;;;2.80;2.00;;;20.80;48.40;;;;;;5030055;28;20087;-62
2020/12/18 05:11:19;;;;;;;3.08;2.17;;;20.80;48.40;;;;;;5030304;28;20029;-42
2020/12/18 05:13:45;;;;;;;4.93;2.05;;;20.80;48.30;;;;;;5030890;28;20021;-45
2020/12/18 05:16:11;;;;;;;2.92;2.15;;;20.80;48.30;;;;;;5029930;28;20039;-42
2020/12/18 05:18:37;;;;;;;3.70;2.22;;;20.70;48.20;;;;;;5033788;28;20095;-54
2020/12/18 05:21:04;;;;;;;3.10;2.13;;;20.80;48.30;;;;;;5033526;28;20045;-54
2020/12/18 05:23:34;;;;;;;3.38;2.47;;;20.80;48.30;;;;;;5033861;28;20390;-54
2020/12/18 05:26:00;;;;;;;5.05;2.25;;;20.80;48.20;;;;;;5032401;28;20386;-44
2020/12/18 05:28:26;;;;;;;4.45;2.22;;;20.80;48.20;;;;;;5034133;28;20029;-44
2020/12/18 05:30:55;;;;;;;3.47;2.22;;;20.80;48.20;;;;;;5033272;28;20029;-61
2020/12/18 05:33:25;;;;;;;2.60;1.92;;;20.80;48.20;;;;;;5028195;28;20049;-40
2020/12/18 05:35:56;;;;;;;3.08;2.22;;;20.80;48.10;;;;;;5033300;28;20063;-61
2020/12/18 05:38:22;;;;;;;3.58;2.00;;;20.80;48.10;;;;;;5033980;28;20025;-52
2020/12/18 05:40:48;;;;;;;3.92;2.40;;;20.80;48.10;;;;;;5033643;28;20034;-40
2020/12/18 05:43:14;;;;;;;3.67;2.38;;;20.80;48.10;;;;;;5032757;28;20850;-46
2020/12/18 05:45:40;;;;;;;3.17;2.13;;;20.80;48.10;;;;;;5033464;28;20025;-46
2020/12/18 05:48:06;;;;;;;2.70;2.15;;;20.80;48.10;;;;;;5032074;28;20030;-40
2020/12/18 05:50:37;;;;;;;2.95;2.45;;;20.80;48.10;;;;;;5033818;28;20455;-39
2020/12/18 05:53:06;;;;;;;4.03;2.13;;;20.80;48.10;;;;;;5032276;28;20039;-43
2020/12/18 05:55:36;;;;;;;3.40;2.28;;;20.80;48.00;;;;;;5033557;28;20044;-58
2020/12/18 05:58:02;;;;;;;3.15;2.28;;;20.80;48.00;;;;;;5032413;28;20032;-45
2020/12/18 06:00:28;;;;;;;4.75;2.42;;;20.80;48.60;;;;;;5033271;28;20033;-45
2020/12/18 06:03:00;;;;;;;4.28;2.10;;;20.80;48.00;;;;;;5032722;28;20065;-59
2020/12/18 06:05:26;;;;;;;3.95;2.50;;;20.80;48.00;;;;;;5032461;28;20128;-37
2020/12/18 06:07:53;;;;;;;3.17;2.20;;;20.80;48.00;;;;;;5033298;28;20030;-65
2020/12/18 06:10:23;;;;;;;2.60;2.00;;;20.80;48.00;;;;;;5033304;28;20037;-44
2020/12/18 06:12:59;;;;;;;4.28;2.40;;;20.80;48.00;;;;;;5032973;28;20538;-45
2020/12/18 06:15:25;;;;;;;3.78;2.50;;;20.80;48.00;;;;;;5033220;28;20038;-51
2020/12/18 06:17:52;;;;;;;3.10;2.30;;;20.80;48.00;;;;;;5032969;28;20045;-61
2020/12/18 06:20:19;;;;;;;4.75;2.42;;;20.80;48.00;;;;;;5031753;28;20033;-42
2020/12/18 06:23:04;;;;;;;3.20;2.30;;;20.80;47.90;;;;;;5033029;28;20467;-49
2020/12/18 06:25:31;;;;;;;2.55;2.35;;;20.80;47.90;;;;;;5033134;28;20030;-55
2020/12/18 06:28:01;;;;;;;2.75;1.85;;;20.80;47.90;;;;;;5031777;28;20033;-46
2020/12/18 06:30:27;;;;;;;5.38;2.53;;;20.80;47.90;;;;;;5032627;28;20036;-53
2020/12/18 06:32:54;;;;;;;2.58;2.17;;;20.80;47.90;;;;;;5032485;28;20049;-59
2020/12/18 06:35:34;;;;;;;3.70;2.40;;;20.80;47.90;;;;;;5032485;28;20041;-55
2020/12/18 06:38:12;;;;;;;3.05;2.40;;;20.80;47.80;;;;;;5031235;28;20080;-43
2020/12/18 06:40:37;;;;;;;3.85;2.70;;;20.80;47.90;;;;;;5031710;28;20025;-44
2020/12/18 06:43:03;;;;;;;3.00;2.22;;;20.80;47.90;;;;;;5030547;28;20040;-47
2020/12/18 06:45:29;;;;;;;3.35;2.30;;;20.80;47.80;;;;;;5031232;28;20041;-41
2020/12/18 06:47:55;;;;;;;4.28;3.13;;;20.80;47.80;;;;;;5030365;28;20030;-60
2020/12/18 06:50:21;;;;;;;5.20;2.25;;;20.80;48.50;;;;;;5031251;28;20475;-38
2020/12/18 06:52:50;;;;;;;4.85;2.75;;;20.80;47.90;;;;;;5031096;28;20381;-45
2020/12/18 06:55:25;;;;;;;3.50;2.47;;;20.80;47.90;;;;;;5027759;28;20544;-45
2020/12/18 06:58:06;;;;;;;4.78;2.47;;;20.80;47.80;;;;;;5031659;28;20030;-48
2020/12/18 07:00:36;;;;;;;2.78;2.17;;;20.80;47.80;;;;;;5030890;28;20025;-43
2020/12/18 07:03:02;;;;;;;2.83;2.28;;;20.80;47.80;;;;;;5028826;28;20530;-47
2020/12/18 07:05:40;;;;;;;3.50;2.25;;;20.80;47.80;;;;;;5049470;28;20033;-55
2020/12/18 07:08:15;;;;;;;4.22;2.40;;;20.80;47.80;;;;;;5030178;28;20039;-39
2020/12/18 07:10:46;;;;;;;3.08;2.15;;;20.80;47.80;;;;;;5029121;28;20033;-37
2020/12/18 07:13:18;;;;;;;2.60;2.05;;;20.90;47.80;;;;;;5029881;28;20938;-37
2020/12/18 07:15:44;;;;;;;;;;;20.80;47.80;;;;;;5031144;28;20049;-54
2020/12/18 07:18:19;;;;;;;2.90;2.20;;;20.90;47.80;;;;;;5029975;28;20412;-43
2020/12/18 07:21:07;;;;;;;4.65;2.65;;;20.80;47.80;;;;;;5028911;28;20044;-41
2020/12/18 07:23:38;;;;;;;4.20;2.42;;;20.80;47.70;;;;;;5029705;28;20075;-50
2020/12/18 07:26:05;;;;;;;3.43;2.37;;;20.80;47.80;;;;;;5030121;28;20091;-48
2020/12/18 07:28:37;;;;;;;3.15;2.45;;;20.90;47.80;;;;;;5030608;28;20040;-50
2020/12/18 07:31:04;;;;;;;;;;;20.80;47.70;;;;;;5028741;28;20088;-48
2020/12/18 07:33:30;;;;;;;3.42;2.50;;;20.80;47.70;;;;;;5030255;28;19916;-48
2020/12/18 07:35:56;;;;;;;3.08;2.22;;;20.80;47.70;;;;;;5028572;28;20037;-55
2020/12/18 07:38:29;;;;;;;3.65;2.20;;;20.80;47.70;;;;;;5030251;28;20470;-38
2020/12/18 07:41:08;;;;;;;10.63;3.03;;;20.90;47.70;;;;;;5029359;28;20372;-58
2020/12/18 07:43:35;;;;;;;4.93;2.30;;;20.80;47.70;;;;;;5030369;28;20030;-47
2020/12/18 07:46:07;;;;;;;3.85;2.53;;;20.90;47.70;;;;;;5030665;28;20045;-38
2020/12/18 07:48:34;;;;;;;3.05;2.10;;;20.90;47.80;;;;;;5031614;28;20112;-38
2020/12/18 07:51:20;;;;;;;3.42;2.40;;;20.90;47.70;;;;;;5029562;28;20088;-43
2020/12/18 07:53:53;;;;;;;4.72;3.20;;;20.90;47.90;;;;;;5031110;28;20033;-47
2020/12/18 07:56:22;;;;;;;4.75;2.50;;;20.90;47.90;;;;;;5030462;28;20060;-43
2020/12/18 07:59:00;;;;;;;6.47;2.60;;;20.90;47.90;;;;;;5044828;28;20032;-45
2020/12/18 08:01:31;;;;;;;3.38;2.28;;;21.00;48.00;;;;;;5028224;28;20026;-53
2020/12/18 08:04:11;;;;;;;5.38;2.67;;;21.00;48.40;;;;;;5030271;28;20045;-58
2020/12/18 08:06:38;;;;;;;8.48;4.15;;;21.00;48.00;;;;;;5030404;28;20029;-43
2020/12/18 08:09:19;;;;;;;6.18;3.33;;;20.90;45.90;;;;;;5028916;28;20491;-36
2020/12/18 08:11:46;;;;;;;5.25;3.08;;;20.80;47.20;;;;;;5030004;28;20025;-45
2020/12/18 08:14:12;;;;;;;6.60;3.00;;;20.80;47.90;;;;;;5028788;28;20040;-39
2020/12/18 08:16:39;;;;;;;6.80;3.17;;;20.90;48.00;;;;;;5029444;28;20486;-46
2020/12/18 08:19:09;;;;;;;5.82;3.25;;;21.00;48.20;;;;;;5028650;28;20026;-41
2020/12/18 08:21:37;;;;;;;7.30;2.97;;;21.00;48.20;;;;;;5029263;28;20047;-38
2020/12/18 08:24:36;;;;;;;7.45;2.92;;;21.00;48.30;;;;;;5029231;28;20352;-44
2020/12/18 08:27:04;;;;;;;5.28;3.10;;;21.00;48.40;;;;;;4999650;28;20466;-43
2020/12/18 08:29:31;;;;;;;5.88;2.83;;;21.00;48.50;;;;;;5030169;28;20052;-46
2020/12/18 08:31:59;;;;;;;3.38;2.25;;;21.00;48.50;;;;;;5029293;28;20049;-55
2020/12/18 08:34:30;;;;;;;3.92;2.50;;;21.00;48.40;;;;;;5020876;28;20459;-43
2020/12/18 08:36:57;;;;;;;5.17;2.60;;;21.10;48.50;;;;;;5029996;28;20033;-55
2020/12/18 08:39:27;;;;;;;4.32;2.90;;;21.10;48.60;;;;;;5029638;28;20064;-41
2020/12/18 08:41:54;;;;;;;5.60;2.78;;;21.10;48.60;;;;;;5030233;28;20033;-53
2020/12/18 08:44:31;;;;;;;6.07;2.58;;;21.10;48.70;;;;;;5029479;28;20151;-43
2020/12/18 08:46:57;;;;;;;4.20;2.70;;;21.10;48.60;;;;;;5016990;28;20026;-57
2020/12/18 08:49:27;;;;;;;6.65;2.88;;;21.10;48.70;;;;;;5028357;28;20030;-39
2020/12/18 08:51:55;;;;;;;6.03;3.10;;;21.00;48.70;;;;;;5033440;28;20377;-37
2020/12/18 08:54:28;;;;;;;5.60;2.97;;;21.00;48.70;;;;;;5032267;28;20029;-48
2020/12/18 08:57:31;;;;;;;7.22;2.80;;;21.00;48.70;;;;;;5032246;28;20091;-54
2020/12/18 09:00:17;;;;;;;4.57;2.83;;;21.00;48.70;;;;;;5033815;28;20022;-42
2020/12/18 09:02:48;;;;;;;3.78;2.80;;;21.00;48.80;;;;;;5033245;28;20025;-47
2020/12/18 09:05:20;;;;;;;5.72;2.60;;;21.00;48.70;;;;;;5030767;28;20792;-47
2020/12/18 09:07:56;;;;;;;4.53;2.97;;;21.00;48.70;;;;;;5032770;28;20026;-45
2020/12/18 09:10:46;;;;;;;4.25;2.40;;;21.10;48.80;;;;;;5031108;28;20030;-43
2020/12/18 09:13:15;;;;;;;4.75;2.65;;;21.00;48.70;;;;;;5031434;28;20042;-46
2020/12/18 09:15:42;;;;;;;3.85;2.67;;;21.00;48.70;;;;;;5029819;28;20044;-45
2020/12/18 09:18:14;;;;;;;6.40;3.03;;;21.00;48.70;;;;;;5031835;28;20378;-43
2020/12/18 09:20:44;;;;;;;5.60;3.58;;;21.00;48.70;;;;;;5031697;28;20471;-45
2020/12/18 09:23:15;;;;;;;4.40;2.78;;;21.00;48.70;;;;;;5031737;28;20033;-43
2020/12/18 09:25:49;;;;;;;3.67;2.83;;;21.10;48.80;;;;;;5029977;28;20060;-44
2020/12/18 09:28:18;;;;;;;4.82;2.95;;;21.00;48.70;;;;;;5029732;28;20144;-40
2020/12/18 09:30:52;;;;;;;4.75;3.45;;;21.10;48.80;;;;;;5031468;28;20025;-48
2020/12/18 09:33:35;;;;;;;3.83;2.40;;;21.00;48.70;;;;;;5030470;28;20480;-57
2020/12/18 09:36:05;;;;;;;3.90;2.53;;;21.00;48.80;;;;;;5030756;28;20049;-53
2020/12/18 09:38:33;;;;;;;4.32;2.80;;;21.00;48.80;;;;;;5031606;28;20040;-56
2020/12/18 09:41:02;;;;;;;3.13;2.63;;;21.00;48.80;;;;;;5031661;28;20037;-56
2020/12/18 09:43:28;;;;;;;3.40;2.42;;;21.10;48.80;;;;;;5031553;28;20033;-45
2020/12/18 09:45:56;;;;;;;3.33;2.53;;;21.10;48.80;;;;;;5031747;28;20052;-53
2020/12/18 09:48:21;;;;;;;4.50;2.60;;;21.10;48.80;;;;;;5031536;28;20030;-48
2020/12/18 09:50:55;;;;;;;3.70;2.58;;;21.10;48.80;;;;;;5032424;28;20017;-36
2020/12/18 09:53:24;;;;;;;6.55;2.75;;;21.10;48.80;;;;;;5030317;28;20278;-36
2020/12/18 09:55:50;;;;;;;4.40;2.50;;;21.10;48.80;;;;;;5032158;28;20507;-43
2020/12/18 09:58:16;;;;;;;4.10;2.60;;;21.10;48.90;;;;;;5030038;28;20032;-46
2020/12/18 10:00:42;;;;;;;4.25;2.78;;;21.10;49.00;;;;;;5032255;28;20029;-50
2020/12/18 10:03:07;;;;;;;3.83;2.50;;;21.10;49.10;;;;;;5031213;28;20032;-47
2020/12/18 10:05:33;;;;;;;6.40;2.60;;;21.10;49.20;;;;;;5031663;28;20130;-39
2020/12/18 10:07:59;;;;;;;5.72;2.55;;;21.10;49.20;;;;;;5031630;28;20056;-56
2020/12/18 10:10:26;;;;;;;5.65;2.35;;;21.10;49.20;;;;;;5031587;28;20083;-49
2020/12/18 10:12:56;;;;;;;5.20;2.80;;;21.10;49.30;;;;;;5032311;28;20060;-44
2020/12/18 10:15:22;;;;;;;3.95;2.45;;;21.10;49.40;;;;;;5031040;28;20056;-40
2020/12/18 10:17:48;;;;;;;6.30;2.75;;;21.10;49.80;;;;;;5032117;28;20383;-46
2020/12/18 10:20:14;;;;;;;4.82;2.97;;;21.10;50.00;;;;;;5030816;28;20022;-49
2020/12/18 10:22:39;;;;;;;4.20;2.83;;;21.00;49.90;;;;;;5032037;28;20021;-46
2020/12/18 10:25:05;;;;;;;8.52;3.10;;;21.00;49.90;;;;;;5031298;28;20037;-46
2020/12/18 10:27:31;;;;;;;4.78;3.00;;;21.00;49.70;;;;;;5031728;28;20037;-46
2020/12/18 10:29:57;;;;;;;5.25;2.80;;;21.00;49.60;;;;;;5026459;28;20033;-58
2020/12/18 10:32:26;;;;;;;7.57;3.00;;;21.00;49.60;;;;;;5031616;28;20128;-47
2020/12/18 10:34:52;;;;;;;8.57;3.20;;;21.00;49.50;;;;;;5031946;28;20042;-44
2020/12/18 10:37:18;;;;;;;8.23;3.22;;;21.10;49.60;;;;;;5031758;28;20647;-46
2020/12/18 10:39:44;;;;;;;8.43;3.08;;;21.10;49.60;;;;;;5031765;28;20036;-40
2020/12/18 10:42:10;;;;;;;7.10;2.70;;;21.10;49.60;;;;;;5031458;28;20075;-42
2020/12/18 10:44:36;;;;;;;9.32;2.95;;;21.10;49.70;;;;;;5031912;28;20489;-44
2020/12/18 10:47:03;;;;;;;4.78;3.22;;;21.10;49.50;;;;;;5030808;28;20428;-55
2020/12/18 10:49:29;;;;;;;7.85;2.78;;;21.10;49.60;;;;;;5021412;28;20026;-45
2020/12/18 10:51:54;;;;;;;4.53;2.70;;;21.10;49.60;;;;;;5031870;28;20099;-43
2020/12/18 10:54:20;;;;;;;7.80;3.25;;;21.10;49.80;;;;;;5031095;28;20057;-50
2020/12/18 10:56:56;;;;;;;7.28;3.08;;;21.10;50.00;;;;;;5031355;28;20108;-46
2020/12/18 10:59:23;;;;;;;6.30;2.88;;;21.10;50.00;;;;;;5031161;28;20485;-46
2020/12/18 11:01:56;;;;;;;6.72;3.35;;;21.10;50.00;;;;;;5031731;28;20438;-36
2020/12/18 11:04:21;;;;;;;4.38;2.97;;;21.10;50.00;;;;;;5031381;28;20040;-44
2020/12/18 11:06:47;;;;;;;6.80;3.08;;;21.20;50.10;;;;;;5031651;28;20029;-47
2020/12/18 11:09:14;;;;;;;6.07;3.40;;;21.20;50.10;;;;;;5027463;28;20018;-49
2020/12/18 11:11:40;;;;;;;7.30;3.00;;;21.20;50.20;;;;;;5030869;28;20032;-46
2020/12/18 11:14:06;;;;;;;5.65;2.50;;;21.20;50.40;;;;;;5030170;28;20025;-49
2020/12/18 11:16:32;;;;;;;7.50;2.90;;;21.20;50.30;;;;;;5030598;28;20056;-47
2020/12/18 11:19:01;;;;;;;6.93;2.40;;;21.10;50.30;;;;;;5030776;28;20033;-63
2020/12/18 11:21:28;;;;;;;4.63;2.67;;;21.20;50.40;;;;;;5027657;28;20025;-42
2020/12/18 11:23:53;;;;;;;8.05;2.80;;;21.10;50.60;;;;;;5030971;28;20025;-47
2020/12/18 11:26:19;;;;;;;5.18;2.45;;;21.10;50.50;;;;;;5030402;28;20022;-49
2020/12/18 11:28:45;;;;;;;4.90;2.63;;;21.10;50.60;;;;;;5044444;28;20104;-46
2020/12/18 11:31:10;;;;;;;5.28;2.42;;;21.10;50.50;;;;;;5030307;28;20038;-47
2020/12/18 11:33:36;;;;;;;5.35;2.80;;;21.10;50.50;;;;;;5030774;28;20041;-37
2020/12/18 11:36:02;;;;;;;4.70;2.55;;;21.10;50.40;;;;;;5027578;28;20037;-42
2020/12/18 11:38:28;;;;;;;11.63;3.45;;;21.10;50.40;;;;;;5030406;28;20356;-57
2020/12/18 11:40:53;;;;;;;9.88;3.00;;;21.10;50.50;;;;;;5027338;28;20029;-48
2020/12/18 11:43:19;;;;;;;10.90;3.03;;;21.20;50.70;;;;;;5029633;28;20645;-46
2020/12/18 11:45:45;;;;;;;5.45;2.63;;;21.10;50.50;;;;;;5030237;28;20037;-43
2020/12/18 11:48:11;;;;;;;11.32;3.08;;;21.10;50.60;;;;;;5030384;28;20032;-49
2020/12/18 11:50:37;;;;;;;7.95;2.55;;;21.10;50.60;;;;;;5010408;28;20029;-55
2020/12/18 11:53:04;;;;;;;4.63;2.47;;;21.10;50.50;;;;;;5030075;28;20033;-53
2020/12/18 11:55:31;;;;;;;6.22;2.50;;;21.10;50.70;;;;;;5030922;28;20041;-50
2020/12/18 11:58:03;;;;;;;10.10;4.05;;;21.10;50.60;;;;;;5030522;28;20036;-56
2020/12/18 12:00:30;;;;;;;7.05;2.88;;;21.10;50.40;;;;;;5030257;28;20040;-55
2020/12/18 12:02:55;;;;;;;7.55;2.95;;;21.20;50.80;;;;;;5030599;28;20057;-46
2020/12/18 12:05:23;;;;;;;6.25;2.78;;;21.20;50.70;;;;;;5029874;28;20552;-44
2020/12/18 12:07:49;;;;;;;6.07;2.85;;;21.20;50.70;;;;;;5021371;28;20494;-42
2020/12/18 12:10:17;;;;;;;7.82;2.80;;;21.20;50.50;;;;;;5029831;28;20036;-49
2020/12/18 12:12:43;;;;;;;10.15;2.58;;;21.20;50.50;;;;;;5027823;28;20021;-41
2020/12/18 12:15:09;;;;;;;5.45;3.10;;;21.20;50.50;;;;;;5030062;28;20025;-47
2020/12/18 12:17:35;;;;;;;6.50;2.90;;;21.20;50.70;;;;;;5030184;28;20028;-42
2020/12/18 12:20:01;;;;;;;6.32;2.63;;;21.20;50.80;;;;;;5022643;28;20129;-44
2020/12/18 12:22:27;;;;;;;7.32;2.53;;;21.20;50.80;;;;;;5029399;28;20025;-44
2020/12/18 12:24:54;;;;;;;5.90;2.50;;;21.10;50.80;;;;;;5030198;28;20030;-43
2020/12/18 12:27:25;;;;;;;5.60;3.45;;;21.20;50.90;;;;;;5032895;28;20837;-41
2020/12/18 12:29:51;;;;;;;6.63;2.90;;;21.10;50.90;;;;;;5034792;28;20055;-40
2020/12/18 12:32:17;;;;;;;10.20;3.42;;;21.20;51.00;;;;;;5033209;28;20037;-41
2020/12/18 12:34:43;;;;;;;6.07;2.75;;;21.10;51.00;;;;;;5034586;28;20075;-40
2020/12/18 12:37:11;;;;;;;6.15;3.03;;;21.20;51.10;;;;;;5033649;28;20042;-49
2020/12/18 12:39:37;;;;;;;5.47;2.38;;;21.10;51.00;;;;;;5034037;28;20037;-50
2020/12/18 12:42:04;;;;;;;6.13;2.58;;;21.10;51.00;;;;;;5032949;28;20025;-49
2020/12/18 12:44:30;;;;;;;5.30;2.88;;;21.10;51.10;;;;;;5033850;28;20029;-43
2020/12/18 12:46:56;;;;;;;5.85;2.92;;;21.10;51.10;;;;;;5032837;28;20040;-44
2020/12/18 12:49:22;;;;;;;6.38;3.28;;;21.20;51.10;;;;;;5033119;28;20074;-47
2020/12/18 12:51:47;;;;;;;6.35;2.92;;;21.10;50.80;;;;;;5033299;28;20037;-46